createdAt,value
2023-03-02T00:03:54.802Z,6.25
2023-03-02T00:18:57.121Z,6.65
2023-03-02T00:33:59.388Z,6.33
2023-03-02T00:49:01.821Z,6.83
2023-03-02T01:04:04.029Z,6.2
2023-03-02T01:19:06.265Z,6
2023-03-02T01:34:08.496Z,5.54
2023-03-02T01:49:10.749Z,4.58
2023-03-02T02:04:13.155Z,4.1
2023-03-02T02:19:15.457Z,4.16
2023-03-02T02:34:17.715Z,4.3
2023-03-02T02:49:20.046Z,4.65
2023-03-02T03:04:22.449Z,3.61
2023-03-02T03:19:24.774Z,3.58
2023-03-02T03:34:26.982Z,3.73
2023-03-02T03:49:29.158Z,4.05
2023-03-02T04:04:31.369Z,4.27
2023-03-02T04:19:33.736Z,4.11
2023-03-02T04:34:36.213Z,4.29
2023-03-02T04:49:38.476Z,3.93
2023-03-02T05:04:40.756Z,3.79
2023-03-02T05:19:43.074Z,4.11
2023-03-02T05:34:45.433Z,4.35
2023-03-02T05:49:47.685Z,4.3
2023-03-02T06:04:49.857Z,4.53
2023-03-02T06:19:52.113Z,4.59
2023-03-02T06:34:54.791Z,4.12
2023-03-02T06:49:57.146Z,4.18
2023-03-02T07:04:59.417Z,4.23
2023-03-02T07:20:01.900Z,3.85
2023-03-02T07:35:04.104Z,4.4
2023-03-02T07:50:06.615Z,4.45
2023-03-02T08:05:08.859Z,4.2
2023-03-02T08:20:11.068Z,4.35
2023-03-02T08:35:13.271Z,3.72
2023-03-02T08:50:15.552Z,4.03
2023-03-02T09:05:17.813Z,3.78
2023-03-02T09:20:19.983Z,4.21
2023-03-02T09:35:22.197Z,4.15
2023-03-02T10:05:35.670Z,3.1
2023-03-02T10:20:37.871Z,3.14
2023-03-02T10:35:40.458Z,3.13
2023-03-02T10:50:42.727Z,2.97
2023-03-02T11:05:45.116Z,2.99
2023-03-02T11:20:47.288Z,2.9
2023-03-02T11:35:49.565Z,2.77
2023-03-02T11:50:52.102Z,2.65
2023-03-02T12:05:54.608Z,2.94
2023-03-02T12:20:56.825Z,2.77
2023-03-02T12:35:59.115Z,2.14
2023-03-02T12:51:01.431Z,2.52
2023-03-02T13:06:03.864Z,2.96
2023-03-02T13:21:06.117Z,2.76
2023-03-02T13:36:08.592Z,2.38
2023-03-02T13:51:10.850Z,2.79
2023-03-02T14:06:13.091Z,3.38
2023-03-02T14:21:15.393Z,3.66
2023-03-02T14:36:17.669Z,3.61
2023-03-02T14:51:19.970Z,3.63
2023-03-02T15:06:22.190Z,3.76
2023-03-02T15:21:24.480Z,3.07
2023-03-02T15:36:26.686Z,2.95
2023-03-02T15:51:29.073Z,3.56
2023-03-02T16:06:31.363Z,3.7
2023-03-02T16:21:33.646Z,3.76
2023-03-02T16:36:35.937Z,3.6
2023-03-02T16:51:38.193Z,3.62
2023-03-02T17:06:43.498Z,3.75
2023-03-02T17:21:45.920Z,4.01
2023-03-02T17:36:48.232Z,4.15
2023-03-02T17:51:56.736Z,3.83
2023-03-02T18:06:59.007Z,4
2023-03-02T18:22:01.390Z,3.87
2023-03-02T18:37:03.484Z,4.19
2023-03-02T18:52:05.767Z,3.66
2023-03-02T19:07:07.983Z,4.05
2023-03-02T19:22:10.175Z,4.18
2023-03-02T19:37:19.575Z,4.45
2023-03-02T19:52:22.187Z,4.53
2023-03-02T20:07:24.483Z,4.94
2023-03-02T20:22:26.714Z,5
2023-03-02T20:37:28.987Z,4.84
2023-03-02T20:52:31.235Z,4.92
2023-03-02T21:07:33.515Z,4.96
2023-03-02T21:22:35.879Z,5.48
2023-03-02T21:37:38.172Z,5.8
2023-03-02T21:52:40.402Z,5.34
2023-03-02T22:07:42.658Z,5.7
2023-03-02T22:22:44.851Z,6.11
2023-03-02T22:37:47.080Z,6.61
2023-03-02T22:52:49.334Z,6.11
2023-03-02T23:07:51.770Z,4.31
2023-03-02T23:22:54.088Z,4.84
2023-03-02T23:37:56.313Z,4.89
2023-03-02T23:52:58.560Z,4.66
